Gobblers Point, Arkansas
Current Conditions -  °F | °C
As of 12:53 PM on Thursday 27 Nov 2014 (Local Time) from KRUE Reporting Station
Clear Clear  
Wind Chill:   Ceiling: Unl
Heat Index:   Visibility: 10mi
Dew Point: -3°   Wind: 5mph
Humidity: 48%   Direction: NA
Pressure: 30.5"   Gusts: NA
Location:  35.3927°N, 92.8078°W
Report Text: KRUE 271853Z AUTO VRB04KT 10SM CLR 07/M03 A3050 RMK AO2 SLP326 T00721033
Loading
Personal Weather Stations






























Interactive Weather Map New forecast layout! Learn more

10-Day Weather Forecast

Advertisements
Track Severe Weather on mobile